Time;durP1;ratioP1;P1;durP2;ratioP2;P2;SDS_P1;SDS_P2;PMS_P1;PMS_P2;Temp;Humidity;BMP_temperature;BMP_pressure;BME280_temperature;BME280_humidity;BME280_pressure;Samples;Min_cycle;Max_cycle;Signal;HPM_P1;HPM_P2
2024/02/20 00:00:54;;;;;;;1.33;1.20;;;;;;;1.56;100.00;101403.28;5025581;28;20044;-68
2024/02/20 00:03:19;;;;;;;1.38;1.27;;;;;;;1.56;100.00;101403.28;5041431;28;20021;-69
2024/02/20 00:05:44;;;;;;;1.65;1.30;;;;;;;1.57;100.00;101411.09;5042181;28;20056;-69
2024/02/20 00:08:10;;;;;;;2.72;1.20;;;;;;;1.60;100.00;101399.41;5040586;28;20040;-69
2024/02/20 00:10:35;;;;;;;1.80;1.20;;;;;;;1.42;100.00;101369.91;5040862;28;20025;-69
2024/02/20 00:13:02;;;;;;;1.50;1.40;;;;;;;1.45;100.00;101384.75;5041156;28;20029;-69
2024/02/20 00:15:27;;;;;;;1.25;1.15;;;;;;;1.51;100.00;101398.34;5041318;28;20030;-70
2024/02/20 00:17:52;;;;;;;4.05;2.20;;;;;;;1.51;100.00;101402.81;5040723;28;20026;-69
2024/02/20 00:20:18;;;;;;;2.65;2.03;;;;;;;1.52;100.00;101397.34;5042613;28;20507;-69
2024/02/20 00:22:43;;;;;;;2.83;2.08;;;;;;;1.55;100.00;101401.56;5042232;28;20481;-69
2024/02/20 00:25:09;;;;;;;1.92;1.73;;;;;;;1.54;100.00;101391.94;5041924;28;20059;-69
2024/02/20 00:27:36;;;;;;;3.65;1.90;;;;;;;1.57;100.00;101395.19;5008363;28;20083;-69
2024/02/20 00:30:03;;;;;;;1.90;1.45;;;;;;;1.60;100.00;101394.09;5025286;28;20079;-69
2024/02/20 00:32:29;;;;;;;1.70;1.60;;;;;;;1.35;100.00;101368.75;5041804;28;20025;-69
2024/02/20 00:34:55;;;;;;;1.73;1.55;;;;;;;1.48;100.00;101395.94;5040545;28;20030;-69
2024/02/20 00:37:21;;;;;;;1.90;1.55;;;;;;;1.47;100.00;101393.41;5024170;28;20061;-70
2024/02/20 00:39:46;;;;;;;1.77;1.50;;;;;;;1.53;100.00;101390.28;5040641;28;20021;-69
2024/02/20 00:42:11;;;;;;;1.75;1.40;;;;;;;1.51;100.00;101370.97;5041743;28;20029;-69
2024/02/20 00:44:37;;;;;;;2.42;1.75;;;;;;;1.59;100.00;101381.78;5041203;28;20049;-69
2024/02/20 00:47:05;;;;;;;2.78;1.63;;;;;;;1.59;100.00;101376.47;5040247;28;20041;-69
2024/02/20 00:49:32;;;;;;;2.22;1.50;;;;;;;1.55;100.00;101369.75;5041658;28;20037;-69
2024/02/20 00:51:57;;;;;;;1.70;1.40;;;;;;;1.43;100.00;101354.88;5041800;28;20075;-68
2024/02/20 00:54:23;;;;;;;1.50;1.40;;;;;;;1.58;100.00;101382.75;5008252;28;20069;-69
2024/02/20 00:56:48;;;;;;;1.88;1.50;;;;;;;1.57;100.00;101378.44;5023657;28;20030;-69
2024/02/20 00:59:14;;;;;;;1.85;1.60;;;;;;;1.60;100.00;101378.19;5041576;28;20036;-68
2024/02/20 01:01:41;;;;;;;2.08;1.88;;;;;;;1.61;100.00;101370.09;5039394;28;20076;-69
2024/02/20 01:04:06;;;;;;;2.30;1.65;;;;;;;1.58;100.00;101374.81;5023965;28;20045;-69
2024/02/20 01:06:36;;;;;;;1.95;1.40;;;;;;;1.60;100.00;101375.53;5053625;28;20136;-70
2024/02/20 01:09:02;;;;;;;2.00;1.80;;;;;;;1.57;100.00;101362.53;5044788;28;20056;-69
2024/02/20 01:11:27;;;;;;;1.92;1.83;;;;;;;1.64;100.00;101374.31;5037389;28;20033;-69
2024/02/20 01:13:53;;;;;;;2.22;1.88;;;;;;;1.56;100.00;101359.03;5037799;28;20304;-69
2024/02/20 01:16:20;;;;;;;2.47;1.90;;;;;;;1.36;100.00;101342.13;5039302;28;20033;-69
2024/02/20 01:18:45;;;;;;;2.67;2.05;;;;;;;1.56;100.00;101376.75;5037709;28;20108;-69
2024/02/20 01:21:11;;;;;;;2.33;2.13;;;;;;;1.43;100.00;101368.13;5021131;28;20163;-69
2024/02/20 01:23:37;;;;;;;2.63;2.20;;;;;;;1.51;100.00;101363.84;5038907;28;20061;-69
2024/02/20 01:26:03;;;;;;;2.92;2.35;;;;;;;1.50;100.00;101364.00;5021669;28;20087;-69
2024/02/20 01:28:29;;;;;;;2.42;2.22;;;;;;;1.48;100.00;101357.97;5037129;28;20052;-69
2024/02/20 01:30:54;;;;;;;2.83;2.03;;;;;;;1.51;100.00;101365.69;5020572;28;20032;-69
2024/02/20 01:33:20;;;;;;;2.30;2.10;;;;;;;1.50;100.00;101354.22;5037743;28;20029;-69
2024/02/20 01:35:45;;;;;;;4.03;1.85;;;;;;;1.48;100.00;101352.66;5023725;28;20034;-70
2024/02/20 01:38:12;;;;;;;2.22;1.90;;;;;;;1.43;100.00;101346.91;5006413;28;20081;-69
2024/02/20 01:40:38;;;;;;;2.53;1.77;;;;;;;1.37;100.00;101357.03;5039632;28;20028;-70
2024/02/20 01:43:05;;;;;;;5.53;2.00;;;;;;;1.40;100.00;101356.78;5023176;28;20029;-70
2024/02/20 01:45:34;;;;;;;3.00;1.85;;;;;;;1.43;100.00;101365.47;5040134;28;20053;-69
2024/02/20 01:48:02;;;;;;;2.42;1.70;;;;;;;1.45;100.00;101374.13;5041527;28;20480;-69
2024/02/20 01:50:35;;;;;;;2.10;1.90;;;;;;;1.50;100.00;101374.59;5041174;28;20102;-69
2024/02/20 01:53:02;;;;;;;1.83;1.73;;;;;;;1.51;100.00;101369.16;5023854;28;20022;-69
2024/02/20 01:55:28;;;;;;;1.98;1.60;;;;;;;1.54;100.00;101374.22;5040726;28;20033;-69
2024/02/20 01:57:53;;;;;;;3.72;1.80;;;;;;;1.55;100.00;101381.19;5044356;28;20055;-74
2024/02/20 02:00:19;;;;;;;2.78;1.90;;;;;;;1.58;100.00;101382.75;5015385;28;20033;-68
2024/02/20 02:02:45;;;;;;;2.80;1.92;;;;;;;1.50;100.00;101367.50;5040663;28;20036;-77
2024/02/20 02:05:11;;;;;;;1.83;1.63;;;;;;;1.60;100.00;101384.31;5036517;28;20033;-69
2024/02/20 02:07:37;;;;;;;2.08;1.85;;;;;;;1.61;100.00;101385.16;5041160;28;20089;-70
2024/02/20 02:10:03;;;;;;;3.03;2.10;;;;;;;1.51;100.00;101358.56;5023513;28;20025;-69
2024/02/20 02:12:28;;;;;;;2.60;1.90;;;;;;;1.65;100.00;101375.97;5025114;28;20550;-69
2024/02/20 02:14:54;;;;;;;2.55;2.20;;;;;;;1.65;100.00;101376.81;5041794;28;20037;-69
2024/02/20 02:17:19;;;;;;;2.60;1.95;;;;;;;1.65;100.00;101374.16;5022507;28;20030;-69
2024/02/20 02:19:44;;;;;;;3.42;2.35;;;;;;;1.58;100.00;101358.88;5040898;28;20112;-69
2024/02/20 02:22:10;;;;;;;2.55;2.00;;;;;;;1.70;100.00;101372.97;5022072;28;20033;-69
2024/02/20 02:24:35;;;;;;;4.60;2.30;;;;;;;1.70;100.00;101372.97;5022592;28;20037;-69
2024/02/20 02:27:05;;;;;;;2.92;1.88;;;;;;;1.62;100.00;101371.78;5021893;28;20034;-69
2024/02/20 02:29:33;;;;;;;2.88;2.38;;;;;;;1.53;100.00;101361.09;5040506;28;20099;-69
2024/02/20 02:31:59;;;;;;;2.80;2.15;;;;;;;1.49;100.00;101371.13;5039897;28;20029;-69
2024/02/20 02:34:29;;;;;;;2.47;2.28;;;;;;;1.47;100.00;101372.22;5039341;28;20033;-69
2024/02/20 02:36:57;;;;;;;3.35;2.70;;;;;;;1.37;100.00;101343.78;5040548;28;20032;-70
2024/02/20 02:39:23;;;;;;;3.63;2.83;;;;;;;1.59;100.00;101373.81;5039991;28;20380;-68
2024/02/20 02:41:50;;;;;;;4.72;2.70;;;;;;;1.61;100.00;101378.03;5023111;28;20061;-69
2024/02/20 02:44:16;;;;;;;3.40;2.42;;;;;;;1.63;100.00;101377.94;5041019;28;20037;-69
2024/02/20 02:46:41;;;;;;;3.83;2.80;;;;;;;1.65;100.00;101376.81;5039590;28;20037;-69
2024/02/20 02:49:07;;;;;;;3.53;2.78;;;;;;;1.64;100.00;101374.31;5040331;28;20083;-68
2024/02/20 02:51:33;;;;;;;3.03;2.70;;;;;;;1.69;100.00;101384.53;5007293;28;20029;-69
2024/02/20 02:53:59;;;;;;;5.53;2.90;;;;;;;1.69;100.00;101385.38;5038977;28;20106;-69
2024/02/20 02:56:24;;;;;;;3.92;2.75;;;;;;;1.64;100.00;101387.56;5030849;28;20033;-69
2024/02/20 02:58:51;;;;;;;3.97;2.78;;;;;;;1.45;100.00;101395.34;5037272;28;20036;-69
2024/02/20 03:01:16;;;;;;;4.28;3.35;;;;;;;1.34;100.00;101398.88;5035963;28;20033;-69
2024/02/20 03:03:42;;;;;;;4.75;3.42;;;;;;;1.39;100.00;101396.69;5036301;28;20477;-68
2024/02/20 03:06:08;;;;;;;4.68;3.40;;;;;;;1.41;100.00;101390.28;5019844;28;20040;-69
2024/02/20 03:08:38;;;;;;;5.45;3.72;;;;;;;1.48;100.00;101398.59;5035984;28;20062;-69
2024/02/20 03:11:07;;;;;;;5.18;3.78;;;;;;;1.28;100.00;101354.31;5035357;28;20477;-69
2024/02/20 03:13:33;;;;;;;4.50;3.58;;;;;;;1.53;100.00;101396.41;5035530;28;20025;-69
2024/02/20 03:16:00;;;;;;;4.80;3.45;;;;;;;1.40;100.00;101362.09;5036714;28;20043;-69
2024/02/20 03:18:26;;;;;;;4.47;3.40;;;;;;;1.57;100.00;101397.00;5018849;28;20423;-69
2024/02/20 03:20:52;;;;;;;4.20;3.80;;;;;;;1.58;100.00;101390.72;5037101;28;20028;-69
2024/02/20 03:23:17;;;;;;;4.30;3.90;;;;;;;1.44;100.00;101369.81;5019279;28;20033;-69
2024/02/20 03:25:43;;;;;;;5.20;3.58;;;;;;;1.59;100.00;101395.91;5039212;28;20456;-70
2024/02/20 03:28:09;;;;;;;6.50;4.20;;;;;;;1.58;100.00;101393.38;5040822;28;20028;-68
2024/02/20 03:30:35;;;;;;;5.05;3.97;;;;;;;1.39;100.00;101356.91;5039416;28;20033;-69
2024/02/20 03:33:00;;;;;;;7.63;5.20;;;;;;;1.61;100.00;101393.97;5039374;28;20026;-69
2024/02/20 03:35:27;;;;;;;5.95;4.93;;;;;;;1.63;100.00;101392.03;5039297;28;20144;-69
2024/02/20 03:37:52;;;;;;;6.13;5.00;;;;;;;1.62;100.00;101381.53;5038629;28;20520;-69
2024/02/20 03:40:19;;;;;;;6.60;5.18;;;;;;;1.59;100.00;101381.78;5039065;28;20087;-69
2024/02/20 03:42:45;;;;;;;6.97;5.10;;;;;;;1.68;100.00;101396.09;5040475;28;20075;-68
2024/02/20 03:45:12;;;;;;;9.25;6.82;;;;;;;1.56;100.00;101369.63;5023229;28;20054;-69
2024/02/20 03:47:37;;;;;;;7.00;6.28;;;;;;;1.71;100.00;101391.38;5023188;28;20047;-68
2024/02/20 03:50:04;;;;;;;8.18;7.15;;;;;;;1.70;100.00;101381.75;5040138;28;20562;-69
2024/02/20 03:52:29;;;;;;;12.38;7.68;;;;;;;1.71;100.00;101386.09;5040805;28;20037;-69
2024/02/20 03:54:55;;;;;;;8.38;7.53;;;;;;;1.71;100.00;101383.44;5022865;28;20025;-68
2024/02/20 03:57:20;;;;;;;9.25;7.97;;;;;;;1.73;100.00;101389.47;5039154;28;20025;-69
2024/02/20 03:59:46;;;;;;;9.43;7.82;;;;;;;1.73;100.00;101378.84;5040440;28;20493;-69
2024/02/20 04:02:12;;;;;;;11.82;8.18;;;;;;;1.71;100.00;101383.44;5041298;28;20041;-69
2024/02/20 04:04:38;;;;;;;11.82;8.23;;;;;;;1.73;100.00;101384.16;5040887;28;20040;-68
2024/02/20 04:07:03;;;;;;;8.63;7.40;;;;;;;1.52;100.00;101344.31;5041362;28;20035;-69
2024/02/20 04:09:28;;;;;;;10.35;7.57;;;;;;;1.77;100.00;101385.59;5042128;28;20033;-68
2024/02/20 04:11:54;;;;;;;8.48;7.57;;;;;;;1.80;100.00;101379.19;5025190;28;20037;-70
2024/02/20 04:14:19;;;;;;;10.70;7.07;;;;;;;1.79;100.00;101377.50;5040359;28;20053;-68
2024/02/20 04:16:45;;;;;;;8.80;6.35;;;;;;;1.81;100.00;101380.84;5042360;28;20163;-68
2024/02/20 04:19:10;;;;;;;10.60;7.43;;;;;;;1.81;100.00;101371.06;5042396;28;20064;-68
2024/02/20 04:21:35;;;;;;;10.10;6.95;;;;;;;1.63;100.00;101340.78;5040901;28;20049;-69
2024/02/20 04:24:01;;;;;;;8.93;7.00;;;;;;;1.85;100.00;101382.28;5024010;28;20034;-69
2024/02/20 04:26:26;;;;;;;9.32;6.55;;;;;;;1.85;100.00;101380.50;5041739;28;20037;-69
2024/02/20 04:28:52;;;;;;;8.95;6.20;;;;;;;1.87;100.00;101381.19;5041182;28;20037;-69
2024/02/20 04:31:17;;;;;;;10.02;6.38;;;;;;;1.88;100.00;101384.69;5040243;28;20030;-69
2024/02/20 04:33:42;;;;;;;9.48;6.70;;;;;;;1.87;100.00;101380.34;5020511;28;20148;-70
2024/02/20 04:36:09;;;;;;;9.30;6.50;;;;;;;1.90;100.00;101385.41;5038792;28;20036;-68
2024/02/20 04:38:34;;;;;;;10.27;6.78;;;;;;;1.91;100.00;101388.88;5039081;28;20049;-69
2024/02/20 04:41:00;;;;;;;13.18;7.05;;;;;;;1.93;100.00;101392.28;5040654;28;20057;-68
2024/02/20 04:43:25;;;;;;;10.55;6.28;;;;;;;1.90;100.00;101400.50;5039012;28;20104;-68
2024/02/20 04:45:51;;;;;;;11.30;6.40;;;;;;;1.93;100.00;101394.94;5007175;28;20049;-68
2024/02/20 04:48:16;;;;;;;12.80;6.63;;;;;;;1.98;100.00;101401.50;5018814;28;20530;-67
2024/02/20 04:50:42;;;;;;;7.93;6.03;;;;;;;1.98;100.00;101392.72;5018762;28;20044;-68
2024/02/20 04:53:09;;;;;;;9.88;6.57;;;;;;;1.84;100.00;101376.13;5034510;28;20030;-68
2024/02/20 04:55:34;;;;;;;11.57;6.78;;;;;;;2.03;100.00;101399.31;5001346;28;20053;-67
2024/02/20 04:57:59;;;;;;;11.77;6.80;;;;;;;2.04;100.00;101395.69;5001237;28;20120;-68
2024/02/20 05:00:25;;;;;;;14.45;7.15;;;;;;;2.06;100.00;101400.88;5017182;28;20022;-67
2024/02/20 05:02:51;;;;;;;16.90;8.35;;;;;;;1.92;100.00;101377.28;5018630;28;20109;-67
2024/02/20 05:05:17;;;;;;;12.80;8.07;;;;;;;2.08;100.00;101406.88;5018444;28;20033;-67
2024/02/20 05:07:42;;;;;;;12.70;7.28;;;;;;;2.07;100.00;101398.09;5019440;28;20049;-68
2024/02/20 05:10:08;;;;;;;14.82;7.30;;;;;;;2.01;100.00;101384.50;5020990;28;20036;-66
2024/02/20 05:12:37;;;;;;;10.40;7.35;;;;;;;2.13;100.00;101390.59;5021867;28;20439;-68
2024/02/20 05:15:03;;;;;;;14.32;7.93;;;;;;;2.18;100.00;101397.19;5022853;28;20026;-68
2024/02/20 05:17:28;;;;;;;10.18;7.93;;;;;;;2.19;100.00;101398.03;5020532;28;20092;-66
2024/02/20 05:19:54;;;;;;;13.93;7.25;;;;;;;2.20;100.00;101397.06;5021829;28;20116;-65
2024/02/20 05:22:19;;;;;;;10.60;8.07;;;;;;;2.23;100.00;101397.63;5023527;28;20499;-67
2024/02/20 05:24:45;;;;;;;12.13;8.35;;;;;;;2.08;100.00;101377.69;5030127;28;20029;-71
2024/02/20 05:27:11;;;;;;;14.52;8.75;;;;;;;2.05;100.00;101365.53;5028577;28;20048;-67
2024/02/20 05:29:36;;;;;;;12.15;7.93;;;;;;;2.23;100.00;101405.59;5025796;28;20045;-67
2024/02/20 05:32:02;;;;;;;18.58;9.60;;;;;;;2.17;100.00;101392.84;5009377;28;20591;-67
2024/02/20 05:34:27;;;;;;;18.52;9.68;;;;;;;2.26;100.00;101404.50;5023092;28;20083;-65
2024/02/20 05:36:53;;;;;;;10.82;8.55;;;;;;;2.25;100.00;101406.34;5023016;28;20105;-65
2024/02/20 05:39:18;;;;;;;14.68;9.40;;;;;;;2.25;100.00;101400.16;5022514;28;20595;-65
2024/02/20 05:41:44;;;;;;;15.50;10.30;;;;;;;2.28;100.00;101390.09;5004485;28;20037;-66
2024/02/20 05:44:09;;;;;;;13.93;9.52;;;;;;;2.28;100.00;101387.44;5020609;28;20033;-68
2024/02/20 05:46:36;;;;;;;20.15;9.13;;;;;;;2.30;100.00;101405.94;5021765;28;20112;-65
2024/02/20 05:49:05;;;;;;;10.57;7.43;;;;;;;2.27;100.00;101398.22;5020853;28;20405;-67
2024/02/20 05:51:32;;;;;;;14.68;9.45;;;;;;;2.34;100.00;101400.22;5021205;28;20121;-66
2024/02/20 05:53:57;;;;;;;14.80;9.52;;;;;;;2.19;100.00;101382.94;5022904;28;20029;-65
2024/02/20 05:56:23;;;;;;;12.35;8.55;;;;;;;2.38;100.00;101399.94;5020462;28;20053;-66
2024/02/20 05:58:48;;;;;;;19.45;9.55;;;;;;;2.40;100.00;101401.50;5031377;28;20105;-67
2024/02/20 06:01:15;;;;;;;13.73;9.50;;;;;;;2.37;100.00;101383.19;5040037;28;20068;-67
2024/02/20 06:03:42;;;;;;;13.23;10.10;;;;;;;2.28;100.00;101368.03;5021176;28;20035;-67
2024/02/20 06:06:08;;;;;;;14.45;8.95;;;;;;;2.19;100.00;101360.88;5042069;28;20037;-70
2024/02/20 06:08:35;;;;;;;14.10;8.00;;;;;;;2.25;100.00;101363.84;5042450;28;20059;-69
2024/02/20 06:11:00;;;;;;;13.23;9.90;;;;;;;2.46;100.00;101390.38;5043016;28;20053;-73
2024/02/20 06:13:26;;;;;;;14.85;10.18;;;;;;;2.40;100.00;101372.28;5042182;28;20059;-68
2024/02/20 06:15:51;;;;;;;13.05;9.63;;;;;;;2.49;100.00;101381.28;5041358;28;20072;-68
2024/02/20 06:18:17;;;;;;;14.85;10.60;;;;;;;2.49;100.00;101386.59;5040288;28;20356;-67
2024/02/20 06:20:45;;;;;;;18.58;11.38;;;;;;;2.50;100.00;101393.59;5022172;28;20022;-66
2024/02/20 06:23:11;;;;;;;13.75;10.93;;;;;;;2.49;100.00;101390.09;5039295;28;20061;-67
2024/02/20 06:25:37;;;;;;;22.45;11.77;;;;;;;2.43;100.00;101371.19;5039700;28;20053;-66
2024/02/20 06:28:03;;;;;;;11.50;9.52;;;;;;;2.50;100.00;101388.28;5039180;28;20040;-72
2024/02/20 06:30:30;;;;;;;11.88;9.40;;;;;;;2.51;100.00;101389.94;5037484;28;20036;-71
2024/02/20 06:32:56;;;;;;;14.20;9.45;;;;;;;2.55;100.00;101399.34;5040460;28;20038;-70
2024/02/20 06:35:22;;;;;;;15.82;10.10;;;;;;;2.57;100.00;101403.53;5042660;28;20060;-70
2024/02/20 06:37:49;;;;;;;15.98;9.20;;;;;;;2.59;100.00;101408.75;5046849;28;20045;-71
2024/02/20 06:40:14;;;;;;;15.60;10.68;;;;;;;2.59;100.00;101406.94;5048084;28;20034;-72
2024/02/20 06:42:40;;;;;;;10.25;7.57;;;;;;;2.41;100.00;101365.16;5047567;28;20030;-70
2024/02/20 06:45:05;;;;;;;11.15;8.30;;;;;;;2.64;100.00;101403.84;5030951;28;20055;-71
2024/02/20 06:47:31;;;;;;;11.52;8.32;;;;;;;2.67;100.00;101400.94;5045202;28;20052;-70
2024/02/20 06:49:57;;;;;;;11.13;7.22;;;;;;;2.65;100.00;101400.25;5045164;28;20033;-70
2024/02/20 06:52:23;;;;;;;8.88;6.15;;;;;;;2.71;100.00;101397.03;5045252;28;20033;-70
2024/02/20 06:54:48;;;;;;;10.35;6.70;;;;;;;2.75;100.00;101402.94;5045512;28;20033;-71
2024/02/20 06:57:13;;;;;;;10.27;6.80;;;;;;;2.48;100.00;101353.03;5044797;28;20550;-71
2024/02/20 06:59:40;;;;;;;9.07;7.05;;;;;;;2.76;100.00;101399.31;5049746;28;20017;-71
2024/02/20 07:02:05;;;;;;;10.55;7.03;;;;;;;2.80;100.00;101401.56;5054043;28;20472;-71
2024/02/20 07:04:31;;;;;;;8.73;6.55;;;;;;;2.81;100.00;101397.06;5043638;28;20037;-70
2024/02/20 07:06:57;;;;;;;9.20;6.00;;;;;;;2.68;100.00;101377.88;5046505;28;20033;-70
2024/02/20 07:09:22;;;;;;;7.18;3.75;;;;;;;2.63;100.00;101362.34;5041043;28;20112;-69
2024/02/20 07:11:48;;;;;;;7.53;3.97;;;;;;;2.80;100.00;101387.44;5043912;28;20040;-82
2024/02/20 07:14:15;;;;;;;8.13;4.20;;;;;;;2.91;100.00;101413.06;5050775;28;20013;-69
2024/02/20 07:16:44;;;;;;;7.07;4.75;;;;;;;2.94;100.00;101415.44;5042498;28;20029;-69
2024/02/20 07:19:10;;;;;;;8.00;3.13;;;;;;;2.77;100.00;101390.34;5036904;28;20549;-69
2024/02/20 07:21:36;;;;;;;4.63;3.20;;;;;;;2.76;100.00;101389.50;5042485;28;20075;-68
2024/02/20 07:24:01;;;;;;;5.50;2.85;;;;;;;2.92;100.00;101418.25;5024468;28;20104;-69
2024/02/20 07:26:27;;;;;;;5.30;2.90;;;;;;;2.96;100.00;101421.50;5041168;28;20092;-69
2024/02/20 07:28:52;;;;;;;7.95;3.00;;;;;;;2.74;100.00;101388.78;5040583;28;20183;-68
2024/02/20 07:31:22;;;;;;;4.60;3.05;;;;;;;2.98;100.00;101436.34;5040707;28;20041;-69
2024/02/20 07:33:48;;;;;;;3.78;2.92;;;;;;;2.93;100.00;101437.69;5041067;28;20029;-68
2024/02/20 07:36:14;;;;;;;5.30;3.15;;;;;;;2.95;100.00;101436.59;5043579;28;20036;-68
2024/02/20 07:38:39;;;;;;;4.47;3.28;;;;;;;2.95;100.00;101435.75;5039889;28;20114;-69
2024/02/20 07:41:05;;;;;;;7.82;3.10;;;;;;;2.94;100.00;101439.38;5042185;28;20026;-68
2024/02/20 07:43:30;;;;;;;7.13;3.30;;;;;;;2.92;100.00;101431.56;5041590;28;20114;-68
2024/02/20 07:45:55;;;;;;;5.20;2.80;;;;;;;2.93;100.00;101438.53;5043914;28;20092;-68
2024/02/20 07:48:21;;;;;;;3.35;2.70;;;;;;;2.97;100.00;101439.94;5041661;28;20025;-68
2024/02/20 07:50:46;;;;;;;5.75;2.45;;;;;;;3.02;100.00;101439.56;5042831;28;20029;-68
2024/02/20 07:53:12;;;;;;;5.13;2.65;;;;;;;3.04;100.00;101429.63;5044879;28;20099;-69
2024/02/20 07:55:41;;;;;;;3.95;2.53;;;;;;;3.10;100.00;101421.09;5044036;28;20515;-68
2024/02/20 07:58:07;;;;;;;5.07;2.80;;;;;;;3.18;100.00;101413.31;5043803;28;20312;-71
2024/02/20 08:00:32;;;;;;;5.38;2.58;;;;;;;3.25;100.00;101406.47;5042773;28;20087;-68
2024/02/20 08:02:58;;;;;;;5.07;2.70;;;;;;;3.30;100.00;101414.84;5040657;28;20041;-69
2024/02/20 08:05:23;;;;;;;4.85;2.75;;;;;;;3.34;100.00;101417.25;5047436;28;20249;-71
2024/02/20 08:07:49;;;;;;;3.30;2.20;;;;;;;3.26;100.00;101413.44;5043003;28;20048;-69
2024/02/20 08:10:14;;;;;;;5.05;2.30;;;;;;;3.28;100.00;101416.84;5017899;28;20049;-68
2024/02/20 08:12:41;;;;;;;5.93;1.73;;;;;;;3.26;100.00;101405.47;5036852;28;20124;-68
2024/02/20 08:15:07;;;;;;;3.50;1.50;;;;;;;3.40;100.00;101419.34;5041127;28;20084;-68
2024/02/20 08:17:33;;;;;;;4.38;1.60;;;;;;;3.42;100.00;101434.22;5023507;28;20495;-68
2024/02/20 08:19:58;;;;;;;2.47;1.40;;;;;;;3.36;100.00;101437.41;5040361;28;20092;-68
2024/02/20 08:22:24;;;;;;;5.32;1.83;;;;;;;3.30;100.00;101435.28;5041142;28;20029;-68
2024/02/20 08:24:49;;;;;;;3.85;1.30;;;;;;;3.35;100.00;101445.56;5024352;28;20090;-68
2024/02/20 08:27:15;;;;;;;6.97;1.40;;;;;;;3.32;100.00;101451.13;5041944;28;20454;-69
2024/02/20 08:29:40;;;;;;;7.63;1.50;;;;;;;3.29;100.00;101447.75;5041637;28;20040;-69
2024/02/20 08:32:07;;;;;;;3.10;1.50;;;;;;;3.30;100.00;101440.63;5040925;28;20100;-68
2024/02/20 08:34:33;;;;;;;2.63;0.60;;;;;;;3.31;100.00;101450.28;5040266;28;20030;-68
2024/02/20 08:36:59;;;;;;;0.98;0.60;;;;;;;3.20;100.00;101459.19;5041659;28;20041;-69
2024/02/20 08:39:24;;;;;;;1.48;0.52;;;;;;;3.23;100.00;101455.44;5042322;28;20040;-68
2024/02/20 08:41:49;;;;;;;3.05;0.60;;;;;;;3.23;100.00;101458.09;5043153;28;20033;-68
2024/02/20 08:44:15;;;;;;;2.38;0.75;;;;;;;3.19;100.00;101459.34;5041237;28;20041;-68
2024/02/20 08:46:40;;;;;;;2.67;0.70;;;;;;;3.13;100.00;101457.22;5024237;28;20033;-68
2024/02/20 08:49:06;;;;;;;1.23;0.60;;;;;;;3.11;100.00;101453.84;5041193;28;20044;-68
2024/02/20 08:51:32;;;;;;;1.58;0.60;;;;;;;3.10;100.00;101441.53;5043126;28;20038;-69
2024/02/20 08:53:58;;;;;;;2.88;0.70;;;;;;;3.12;100.00;101448.41;5044082;28;20033;-69
2024/02/20 08:56:23;;;;;;;1.55;0.43;;;;;;;3.17;100.00;101455.97;5044735;28;20116;-68
2024/02/20 08:58:53;;;;;;;1.15;0.50;;;;;;;3.18;100.00;101450.53;5025879;28;20124;-69
2024/02/20 09:01:19;;;;;;;1.42;0.70;;;;;;;3.21;100.00;101450.28;5041456;28;20395;-68
2024/02/20 09:03:44;;;;;;;2.42;0.77;;;;;;;3.26;100.00;101455.16;5041779;28;20072;-69
2024/02/20 09:06:10;;;;;;;1.50;0.63;;;;;;;3.32;100.00;101464.44;5045492;28;20025;-71
2024/02/20 09:08:35;;;;;;;0.50;0.40;;;;;;;3.17;100.00;101434.69;5047621;28;20029;-68
2024/02/20 09:11:04;;;;;;;1.08;0.57;;;;;;;3.31;100.00;101463.56;5047091;28;20392;-68
2024/02/20 09:13:35;;;;;;;1.00;0.60;;;;;;;3.35;100.00;101459.69;5049502;28;20097;-69
2024/02/20 09:16:00;;;;;;;2.97;0.50;;;;;;;3.34;100.00;101462.47;5047149;28;20025;-72
2024/02/20 09:18:27;;;;;;;0.90;0.40;;;;;;;3.24;100.00;101449.13;5047586;28;20048;-68
2024/02/20 09:20:53;;;;;;;1.25;0.65;;;;;;;3.33;100.00;101466.94;5047126;28;20030;-71
2024/02/20 09:23:18;;;;;;;3.50;0.50;;;;;;;3.33;100.00;101471.44;5046185;28;20068;-69
2024/02/20 09:25:44;;;;;;;1.10;0.40;;;;;;;3.34;100.00;101468.63;5048385;28;20554;-69
2024/02/20 09:28:09;;;;;;;0.60;0.40;;;;;;;3.32;100.00;101467.94;5049926;28;20059;-70
2024/02/20 09:30:37;;;;;;;0.70;0.30;;;;;;;3.35;100.00;101474.81;5054551;28;20140;-69
2024/02/20 09:33:03;;;;;;;2.05;0.60;;;;;;;3.33;100.00;101487.38;5040798;28;20021;-69
2024/02/20 09:35:28;;;;;;;0.30;0.30;;;;;;;3.39;100.00;101482.38;5043573;28;20056;-70
2024/02/20 09:37:54;;;;;;;0.95;0.30;;;;;;;3.44;100.00;101495.25;5043980;28;20084;-68
2024/02/20 09:40:20;;;;;;;1.85;0.45;;;;;;;3.48;100.00;101489.53;5041849;28;20030;-69
2024/02/20 09:42:49;;;;;;;0.45;0.40;;;;;;;3.50;100.00;101495.56;5041759;28;20036;-69
2024/02/20 09:45:19;;;;;;;1.10;0.40;;;;;;;3.49;100.00;101488.56;5042240;28;20037;-68
2024/02/20 09:47:49;;;;;;;1.40;0.50;;;;;;;3.47;100.00;101479.84;5043135;28;20025;-70
2024/02/20 09:50:18;;;;;;;2.70;0.60;;;;;;;3.44;100.00;101466.81;5042318;28;20032;-68
2024/02/20 09:52:50;;;;;;;1.88;0.68;;;;;;;3.40;100.00;101459.25;5042689;28;20515;-69
2024/02/20 09:55:21;;;;;;;1.08;0.55;;;;;;;3.48;100.00;101467.41;5041916;28;20396;-68
2024/02/20 09:57:50;;;;;;;1.92;0.70;;;;;;;3.45;100.00;101481.00;5041716;28;20024;-68
2024/02/20 10:00:19;;;;;;;1.77;0.60;;;;;;;3.48;100.00;101475.41;5041414;28;20071;-68
2024/02/20 10:02:46;;;;;;;1.77;0.60;;;;;;;3.49;100.00;101479.75;5042886;28;20043;-68
2024/02/20 10:05:16;;;;;;;1.52;0.52;;;;;;;3.53;100.00;101479.31;5043320;28;20528;-69
2024/02/20 10:07:42;;;;;;;3.85;0.75;;;;;;;3.61;100.00;101481.31;5041058;28;20385;-68
2024/02/20 10:10:09;;;;;;;3.47;0.70;;;;;;;3.60;100.00;101473.44;5041335;28;20030;-68
2024/02/20 10:12:39;;;;;;;1.67;0.40;;;;;;;3.61;100.00;101481.31;5042687;28;20064;-68
2024/02/20 10:15:08;;;;;;;2.35;0.70;;;;;;;3.65;100.00;101477.41;5042794;28;20025;-68
2024/02/20 10:17:35;;;;;;;1.77;0.60;;;;;;;3.66;100.00;101468.41;5041381;28;20025;-68
2024/02/20 10:20:12;;;;;;;1.42;0.50;;;;;;;3.72;100.00;101483.00;5024760;28;20022;-68
2024/02/20 10:22:42;;;;;;;1.83;0.47;;;;;;;3.05;100.00;101378.97;5042955;28;20036;-68
2024/02/20 10:25:12;;;;;;;1.80;0.60;;;;;;;3.61;100.00;101452.03;5042499;28;20098;-68
2024/02/20 10:27:38;;;;;;;4.93;0.75;;;;;;;3.83;100.00;101480.22;5041923;28;20022;-75
2024/02/20 10:30:05;;;;;;;1.50;0.55;;;;;;;3.85;100.00;101477.41;5041414;28;20024;-68
2024/02/20 10:32:36;;;;;;;2.38;0.65;;;;;;;3.83;100.00;101471.38;5041023;28;20061;-69
2024/02/20 10:35:03;;;;;;;1.67;0.63;;;;;;;3.83;100.00;101488.19;5043884;28;20030;-69
2024/02/20 10:37:29;;;;;;;1.85;0.50;;;;;;;3.82;100.00;101483.03;5044405;28;20049;-69
2024/02/20 10:40:04;;;;;;;2.45;0.70;;;;;;;3.76;100.00;101484.41;5012661;28;20068;-69
2024/02/20 10:42:33;;;;;;;4.07;0.70;;;;;;;3.76;100.00;101469.28;5046284;28;20049;-68
2024/02/20 10:45:01;;;;;;;1.83;0.50;;;;;;;3.80;100.00;101472.50;5028499;28;20025;-70
2024/02/20 10:47:30;;;;;;;3.25;0.70;;;;;;;3.77;100.00;101478.09;5042374;28;20037;-68
2024/02/20 10:49:58;;;;;;;3.58;0.70;;;;;;;3.76;100.00;101474.59;5042401;28;20515;-69
2024/02/20 10:52:27;;;;;;;8.63;1.13;;;;;;;3.79;100.00;101472.66;5043412;28;20044;-68
2024/02/20 10:54:54;;;;;;;6.00;1.00;;;;;;;3.81;100.00;101476.00;5043248;28;20052;-68
2024/02/20 10:57:20;;;;;;;7.22;1.38;;;;;;;3.73;100.00;101452.75;5041714;28;20022;-68
2024/02/20 10:59:49;;;;;;;6.00;1.00;;;;;;;3.83;100.00;101474.88;5045304;28;20041;-68
2024/02/20 11:02:15;;;;;;;4.80;0.75;;;;;;;3.83;100.00;101469.56;5045287;28;20116;-69
2024/02/20 11:04:42;;;;;;;7.18;1.25;;;;;;;3.67;100.00;101446.13;5042237;28;20045;-68
2024/02/20 11:07:08;;;;;;;8.15;1.10;;;;;;;3.66;100.00;101440.97;5042272;28;20056;-69
2024/02/20 11:09:34;;;;;;;3.90;0.85;;;;;;;3.86;100.00;101481.75;5042648;28;20017;-68
2024/02/20 11:12:07;;;;;;;7.78;1.20;;;;;;;3.80;100.00;101458.34;5042377;28;20036;-68
2024/02/20 11:14:32;;;;;;;9.25;1.45;;;;;;;3.97;100.00;101473.63;5043047;28;20029;-69
2024/02/20 11:16:58;;;;;;;9.77;1.65;;;;;;;4.03;100.00;101475.72;5042545;28;20036;-68
2024/02/20 11:19:26;;;;;;;10.25;1.48;;;;;;;4.02;100.00;101479.38;5042586;28;20025;-68